Syria, VA (22743)

6:06 PM EST on February 09, 2016 (GMT -0500)
IDA | | Change Station
CLOSE
Current Station
Personal Weather Station
Location: Luray, VA
Elevation: 1302 ft
Nearby Weather Stations

Elev 1302 ft 38.59 °N, 78.43 °W | Updated 11 minutes ago

Overcast
Overcast
33.2 °F
Feels Like 33 °F
N
1.7
Wind Variable Wind from ESE

Today
High -- | Low -- °F
--% Chance of Precip.
Yesterday
High -- | Low -- °F
Precip. -- in
Pressure 29.61 in
Visibility 10.0 miles
Clouds Overcast 7000 ft
Windchill 33 °F
Dew Point 23 °F
Humidity 67%
Rainfall 0.09 in
Snow Depth Not available.
7:11 AM 5:44 PM
New Moon, 2% visible
METAR KLUA 092255Z AUTO 34005KT 10SM OVC070 01/M07 A2961 RMK AO2
Pressure 29.61 in
Visibility 10.0 miles
Clouds Overcast 7000 ft
Windchill 33 °F
Dew Point 23 °F
Humidity 67%
Rainfall 0.09 in
Snow Depth Not available.
7:11 AM 5:44 PM
New Moon, 2% visible
METAR KLUA 092255Z AUTO 34005KT 10SM OVC070 01/M07 A2961 RMK AO2
Winter Storm Nacio, the third winter storm in five days to affect the Northeast, is bringing pockets of locally heavy snow to parts of the Ohio Valley, Appalachians and mid-Atlantic states Tuesday. Winter storm warnings are posted for parts of southern Pennsylvania, southern Ohio and the higher peaks of the Appalachians. Winter weather advisories, generally for lighter snow accumulations, stretch from northeast Alabama and far north Georgia to southern Connecticut and Long Island.

10-Day Weather Forecast

Almanac

Astronomy

Feb. 09, 2016 Rise Set
Actual Time
Civil Twilight
Nautical Twilight
Astronomical Twilight
Moon
Length of Visible Light
Length of Day
Tomorrow will be .
, % of the Moon is Illuminated

Today's Extremes

State Highs State Lows

Community

WunderPhotos

Upload Photos

1,891,728 photos uploaded!

WunderBlog® & News

Nearby

Air Quality

  Air Quality AQ Index Pollutant
Not available.

Snow Depth

Station Depth Elevation

Earthquake Activity

City Distance Mag. Time & Date
Minimum magnitude displayed is 2.5.

Coastal Water Temperatures

Place Temperature

Stations

Nearby Weather Stations

Station Location Temp. Windchill Dew Point Humidity Wind Precip. Elev Updated Type
                   

Watches & Warnings

There are currently no watches in effect.